Markstay, Canada
Current Conditions -  °F | °C
As of 7:00 AM on Sunday 21 Dec 2014 (Local Time) from CYSB Reporting Station
Overcast Overcast  
Wind Chill: 18°   Ceiling: 1900
Heat Index: 18°   Visibility: 15mi
Dew Point: 14°   Wind: 0mph
Humidity: 86%   Direction: NA
Pressure: 30.23"   Gusts: NA
Location:  46.48°N, 80.53°W
Report Text: CYSB 211200Z 00000KT 15SM OVC019 M08/M10 A3023 RMK SC8 SLP264
Loading
Personal Weather Stations






























Interactive Weather Map New forecast layout! Learn more

10-Day Weather Forecast

Advertisements
Track Severe Weather on mobile